sensor_id;sensor_type;location;lat;lon;timestamp;P1;durP1;ratioP1;P2;durP2;ratioP2
12892;SDS011;6514;48.606;9.222;2023-12-14T00:01:11;2.83;;;2.00;;
12892;SDS011;6514;48.606;9.222;2023-12-14T00:03:38;1.73;;;1.63;;
12892;SDS011;6514;48.606;9.222;2023-12-14T00:06:06;2.00;;;1.80;;
12892;SDS011;6514;48.606;9.222;2023-12-14T00:08:35;2.53;;;2.27;;
12892;SDS011;6514;48.606;9.222;2023-12-14T00:11:03;1.97;;;1.63;;
12892;SDS011;6514;48.606;9.222;2023-12-14T00:13:30;1.67;;;1.57;;
12892;SDS011;6514;48.606;9.222;2023-12-14T00:15:57;1.50;;;1.40;;
12892;SDS011;6514;48.606;9.222;2023-12-14T00:18:24;2.07;;;1.87;;
12892;SDS011;6514;48.606;9.222;2023-12-14T00:20:51;1.70;;;1.60;;
12892;SDS011;6514;48.606;9.222;2023-12-14T00:23:19;2.00;;;1.80;;
12892;SDS011;6514;48.606;9.222;2023-12-14T00:25:47;1.63;;;1.53;;
12892;SDS011;6514;48.606;9.222;2023-12-14T00:28:14;2.90;;;1.87;;
12892;SDS011;6514;48.606;9.222;2023-12-14T00:30:40;1.67;;;1.57;;
12892;SDS011;6514;48.606;9.222;2023-12-14T00:33:07;2.10;;;1.90;;
12892;SDS011;6514;48.606;9.222;2023-12-14T00:35:34;1.80;;;1.70;;
12892;SDS011;6514;48.606;9.222;2023-12-14T00:38:01;1.87;;;1.27;;
12892;SDS011;6514;48.606;9.222;2023-12-14T00:40:28;1.47;;;1.37;;
12892;SDS011;6514;48.606;9.222;2023-12-14T00:42:56;2.70;;;1.50;;
12892;SDS011;6514;48.606;9.222;2023-12-14T00:45:23;1.90;;;1.60;;
12892;SDS011;6514;48.606;9.222;2023-12-14T00:47:50;2.00;;;1.73;;
12892;SDS011;6514;48.606;9.222;2023-12-14T00:50:17;2.03;;;1.60;;
12892;SDS011;6514;48.606;9.222;2023-12-14T00:52:44;1.80;;;1.70;;
12892;SDS011;6514;48.606;9.222;2023-12-14T00:55:10;2.33;;;2.13;;
12892;SDS011;6514;48.606;9.222;2023-12-14T00:57:37;2.10;;;1.90;;
12892;SDS011;6514;48.606;9.222;2023-12-14T01:00:06;2.67;;;2.20;;
12892;SDS011;6514;48.606;9.222;2023-12-14T01:02:34;2.27;;;2.07;;
12892;SDS011;6514;48.606;9.222;2023-12-14T01:05:01;3.27;;;2.57;;
12892;SDS011;6514;48.606;9.222;2023-12-14T01:07:28;2.93;;;2.23;;
12892;SDS011;6514;48.606;9.222;2023-12-14T01:09:55;3.13;;;2.37;;
12892;SDS011;6514;48.606;9.222;2023-12-14T01:12:22;2.60;;;2.40;;
12892;SDS011;6514;48.606;9.222;2023-12-14T01:14:48;2.90;;;2.70;;
12892;SDS011;6514;48.606;9.222;2023-12-14T01:17:17;2.80;;;2.23;;
12892;SDS011;6514;48.606;9.222;2023-12-14T01:19:43;2.87;;;2.30;;
12892;SDS011;6514;48.606;9.222;2023-12-14T01:22:10;3.70;;;2.40;;
12892;SDS011;6514;48.606;9.222;2023-12-14T01:24:37;3.00;;;2.27;;
12892;SDS011;6514;48.606;9.222;2023-12-14T01:27:04;3.23;;;2.60;;
12892;SDS011;6514;48.606;9.222;2023-12-14T01:29:31;2.80;;;2.37;;
12892;SDS011;6514;48.606;9.222;2023-12-14T01:31:58;2.60;;;2.40;;
12892;SDS011;6514;48.606;9.222;2023-12-14T01:34:26;3.03;;;2.47;;
12892;SDS011;6514;48.606;9.222;2023-12-14T01:36:53;3.23;;;1.97;;
12892;SDS011;6514;48.606;9.222;2023-12-14T01:39:19;1.80;;;1.60;;
12892;SDS011;6514;48.606;9.222;2023-12-14T01:41:46;2.40;;;1.73;;
12892;SDS011;6514;48.606;9.222;2023-12-14T01:44:14;1.70;;;1.60;;
12892;SDS011;6514;48.606;9.222;2023-12-14T01:46:41;2.30;;;1.70;;
12892;SDS011;6514;48.606;9.222;2023-12-14T01:49:08;2.40;;;1.80;;
12892;SDS011;6514;48.606;9.222;2023-12-14T01:51:36;1.60;;;1.50;;
12892;SDS011;6514;48.606;9.222;2023-12-14T01:54:02;1.63;;;1.50;;
12892;SDS011;6514;48.606;9.222;2023-12-14T01:56:29;1.30;;;1.20;;
12892;SDS011;6514;48.606;9.222;2023-12-14T01:58:56;1.37;;;1.27;;
12892;SDS011;6514;48.606;9.222;2023-12-14T02:01:24;2.17;;;1.20;;
12892;SDS011;6514;48.606;9.222;2023-12-14T02:03:55;1.90;;;1.10;;
12892;SDS011;6514;48.606;9.222;2023-12-14T02:06:22;1.60;;;1.50;;
12892;SDS011;6514;48.606;9.222;2023-12-14T02:08:50;2.63;;;1.53;;
12892;SDS011;6514;48.606;9.222;2023-12-14T02:11:17;2.00;;;1.50;;
12892;SDS011;6514;48.606;9.222;2023-12-14T02:13:43;1.30;;;1.20;;
12892;SDS011;6514;48.606;9.222;2023-12-14T02:16:10;1.77;;;1.50;;
12892;SDS011;6514;48.606;9.222;2023-12-14T02:18:37;3.80;;;1.90;;
12892;SDS011;6514;48.606;9.222;2023-12-14T02:21:03;1.93;;;1.70;;
12892;SDS011;6514;48.606;9.222;2023-12-14T02:23:32;2.43;;;1.90;;
12892;SDS011;6514;48.606;9.222;2023-12-14T02:25:59;3.83;;;2.17;;
12892;SDS011;6514;48.606;9.222;2023-12-14T02:28:26;2.20;;;2.00;;
12892;SDS011;6514;48.606;9.222;2023-12-14T02:30:52;2.40;;;2.20;;
12892;SDS011;6514;48.606;9.222;2023-12-14T02:33:19;3.73;;;2.20;;
12892;SDS011;6514;48.606;9.222;2023-12-14T02:35:47;1.87;;;1.63;;
12892;SDS011;6514;48.606;9.222;2023-12-14T02:38:14;2.70;;;1.93;;
12892;SDS011;6514;48.606;9.222;2023-12-14T02:40:42;3.73;;;2.60;;
12892;SDS011;6514;48.606;9.222;2023-12-14T02:43:08;3.57;;;2.13;;
12892;SDS011;6514;48.606;9.222;2023-12-14T02:45:35;2.63;;;2.40;;
12892;SDS011;6514;48.606;9.222;2023-12-14T02:48:02;2.90;;;2.60;;
12892;SDS011;6514;48.606;9.222;2023-12-14T02:50:30;3.83;;;2.53;;
12892;SDS011;6514;48.606;9.222;2023-12-14T02:52:57;2.23;;;2.00;;
12892;SDS011;6514;48.606;9.222;2023-12-14T02:55:23;2.33;;;2.13;;
12892;SDS011;6514;48.606;9.222;2023-12-14T02:57:52;3.13;;;2.47;;
12892;SDS011;6514;48.606;9.222;2023-12-14T03:00:19;2.90;;;2.60;;
12892;SDS011;6514;48.606;9.222;2023-12-14T03:02:46;3.77;;;2.80;;
12892;SDS011;6514;48.606;9.222;2023-12-14T03:05:13;3.07;;;2.70;;
12892;SDS011;6514;48.606;9.222;2023-12-14T03:07:39;3.70;;;3.27;;
12892;SDS011;6514;48.606;9.222;2023-12-14T03:10:07;3.80;;;2.93;;
12892;SDS011;6514;48.606;9.222;2023-12-14T03:12:34;4.77;;;3.10;;
12892;SDS011;6514;48.606;9.222;2023-12-14T03:15:03;3.63;;;2.60;;
12892;SDS011;6514;48.606;9.222;2023-12-14T03:17:30;3.50;;;3.00;;
12892;SDS011;6514;48.606;9.222;2023-12-14T03:19:57;5.03;;;3.40;;
12892;SDS011;6514;48.606;9.222;2023-12-14T03:22:24;4.50;;;3.50;;
12892;SDS011;6514;48.606;9.222;2023-12-14T03:24:51;4.30;;;3.63;;
12892;SDS011;6514;48.606;9.222;2023-12-14T03:27:17;4.70;;;3.97;;
12892;SDS011;6514;48.606;9.222;2023-12-14T03:29:45;7.60;;;4.57;;
12892;SDS011;6514;48.606;9.222;2023-12-14T03:32:13;5.97;;;4.00;;
12892;SDS011;6514;48.606;9.222;2023-12-14T03:34:40;5.10;;;3.90;;
12892;SDS011;6514;48.606;9.222;2023-12-14T03:37:07;5.23;;;3.77;;
12892;SDS011;6514;48.606;9.222;2023-12-14T03:39:33;5.27;;;3.93;;
12892;SDS011;6514;48.606;9.222;2023-12-14T03:42:00;5.63;;;4.27;;
12892;SDS011;6514;48.606;9.222;2023-12-14T03:44:27;7.37;;;3.30;;
12892;SDS011;6514;48.606;9.222;2023-12-14T03:46:54;3.83;;;3.43;;
12892;SDS011;6514;48.606;9.222;2023-12-14T03:49:24;4.80;;;3.43;;
12892;SDS011;6514;48.606;9.222;2023-12-14T03:51:51;3.93;;;3.53;;
12892;SDS011;6514;48.606;9.222;2023-12-14T03:54:18;5.70;;;3.57;;
12892;SDS011;6514;48.606;9.222;2023-12-14T03:56:44;4.00;;;3.60;;
12892;SDS011;6514;48.606;9.222;2023-12-14T03:59:11;4.10;;;3.30;;
12892;SDS011;6514;48.606;9.222;2023-12-14T04:01:38;3.83;;;3.03;;
12892;SDS011;6514;48.606;9.222;2023-12-14T04:04:07;3.00;;;2.70;;
12892;SDS011;6514;48.606;9.222;2023-12-14T04:06:35;3.10;;;2.80;;
12892;SDS011;6514;48.606;9.222;2023-12-14T04:09:02;2.90;;;2.70;;
12892;SDS011;6514;48.606;9.222;2023-12-14T04:11:29;3.17;;;2.63;;
12892;SDS011;6514;48.606;9.222;2023-12-14T04:13:56;2.80;;;2.50;;
12892;SDS011;6514;48.606;9.222;2023-12-14T04:16:23;3.03;;;2.47;;
12892;SDS011;6514;48.606;9.222;2023-12-14T04:18:50;3.50;;;2.77;;
12892;SDS011;6514;48.606;9.222;2023-12-14T04:21:17;2.60;;;2.40;;
12892;SDS011;6514;48.606;9.222;2023-12-14T04:23:45;2.83;;;2.47;;
12892;SDS011;6514;48.606;9.222;2023-12-14T04:26:12;2.80;;;2.60;;
12892;SDS011;6514;48.606;9.222;2023-12-14T04:28:39;2.60;;;2.40;;
12892;SDS011;6514;48.606;9.222;2023-12-14T04:31:08;2.40;;;2.20;;
12892;SDS011;6514;48.606;9.222;2023-12-14T04:33:36;2.80;;;2.60;;
12892;SDS011;6514;48.606;9.222;2023-12-14T04:36:03;2.70;;;2.50;;
12892;SDS011;6514;48.606;9.222;2023-12-14T04:38:30;2.60;;;2.40;;
12892;SDS011;6514;48.606;9.222;2023-12-14T04:40:58;2.83;;;2.40;;
12892;SDS011;6514;48.606;9.222;2023-12-14T04:43:25;4.30;;;2.80;;
12892;SDS011;6514;48.606;9.222;2023-12-14T04:45:54;4.83;;;3.03;;
12892;SDS011;6514;48.606;9.222;2023-12-14T04:48:21;7.13;;;4.67;;
12892;SDS011;6514;48.606;9.222;2023-12-14T04:50:48;6.23;;;4.50;;
12892;SDS011;6514;48.606;9.222;2023-12-14T04:53:14;4.30;;;3.90;;
12892;SDS011;6514;48.606;9.222;2023-12-14T04:55:41;3.40;;;3.03;;
12892;SDS011;6514;48.606;9.222;2023-12-14T04:58:09;3.17;;;2.27;;
12892;SDS011;6514;48.606;9.222;2023-12-14T05:00:36;3.27;;;2.30;;
12892;SDS011;6514;48.606;9.222;2023-12-14T05:03:03;1.93;;;1.73;;
12892;SDS011;6514;48.606;9.222;2023-12-14T05:05:30;2.90;;;2.60;;
12892;SDS011;6514;48.606;9.222;2023-12-14T05:07:57;3.57;;;2.30;;
12892;SDS011;6514;48.606;9.222;2023-12-14T05:10:24;3.13;;;2.43;;
12892;SDS011;6514;48.606;9.222;2023-12-14T05:12:51;4.43;;;2.73;;
12892;SDS011;6514;48.606;9.222;2023-12-14T05:15:19;4.60;;;3.07;;
12892;SDS011;6514;48.606;9.222;2023-12-14T05:17:46;2.67;;;2.20;;
12892;SDS011;6514;48.606;9.222;2023-12-14T05:20:13;3.30;;;2.20;;
12892;SDS011;6514;48.606;9.222;2023-12-14T05:22:40;3.13;;;1.93;;
12892;SDS011;6514;48.606;9.222;2023-12-14T05:25:07;2.33;;;2.13;;
12892;SDS011;6514;48.606;9.222;2023-12-14T05:27:34;2.30;;;2.00;;
12892;SDS011;6514;48.606;9.222;2023-12-14T05:30:01;2.20;;;1.93;;
12892;SDS011;6514;48.606;9.222;2023-12-14T05:32:30;2.00;;;1.80;;
12892;SDS011;6514;48.606;9.222;2023-12-14T05:34:57;2.30;;;1.60;;
12892;SDS011;6514;48.606;9.222;2023-12-14T05:37:24;1.90;;;1.80;;
12892;SDS011;6514;48.606;9.222;2023-12-14T05:39:51;2.63;;;2.10;;
12892;SDS011;6514;48.606;9.222;2023-12-14T05:42:18;4.40;;;2.17;;
12892;SDS011;6514;48.606;9.222;2023-12-14T05:44:45;4.70;;;2.33;;
12892;SDS011;6514;48.606;9.222;2023-12-14T05:47:11;2.63;;;2.20;;
12892;SDS011;6514;48.606;9.222;2023-12-14T05:49:41;3.17;;;2.17;;
12892;SDS011;6514;48.606;9.222;2023-12-14T05:52:08;4.80;;;2.63;;
12892;SDS011;6514;48.606;9.222;2023-12-14T05:54:35;3.60;;;3.00;;
12892;SDS011;6514;48.606;9.222;2023-12-14T05:57:02;3.77;;;2.97;;
12892;SDS011;6514;48.606;9.222;2023-12-14T05:59:30;2.83;;;2.50;;
12892;SDS011;6514;48.606;9.222;2023-12-14T06:01:56;4.63;;;2.50;;
12892;SDS011;6514;48.606;9.222;2023-12-14T06:04:23;3.23;;;2.00;;
12892;SDS011;6514;48.606;9.222;2023-12-14T06:06:52;1.80;;;1.60;;
12892;SDS011;6514;48.606;9.222;2023-12-14T06:09:19;3.07;;;1.90;;
12892;SDS011;6514;48.606;9.222;2023-12-14T06:11:49;1.97;;;1.77;;
12892;SDS011;6514;48.606;9.222;2023-12-14T06:14:17;4.57;;;2.53;;
12892;SDS011;6514;48.606;9.222;2023-12-14T06:16:45;4.57;;;2.43;;
12892;SDS011;6514;48.606;9.222;2023-12-14T06:19:12;3.27;;;2.83;;
12892;SDS011;6514;48.606;9.222;2023-12-14T06:21:39;3.23;;;2.60;;
12892;SDS011;6514;48.606;9.222;2023-12-14T06:24:08;4.13;;;3.43;;
12892;SDS011;6514;48.606;9.222;2023-12-14T06:26:34;3.03;;;2.70;;
12892;SDS011;6514;48.606;9.222;2023-12-14T06:29:06;3.53;;;3.10;;
12892;SDS011;6514;48.606;9.222;2023-12-14T06:31:33;4.73;;;2.57;;
12892;SDS011;6514;48.606;9.222;2023-12-14T06:34:00;3.10;;;2.23;;
12892;SDS011;6514;48.606;9.222;2023-12-14T06:36:29;3.30;;;2.03;;
12892;SDS011;6514;48.606;9.222;2023-12-14T06:38:55;1.83;;;1.60;;
12892;SDS011;6514;48.606;9.222;2023-12-14T06:41:24;2.37;;;1.50;;
12892;SDS011;6514;48.606;9.222;2023-12-14T06:43:51;2.13;;;1.50;;
12892;SDS011;6514;48.606;9.222;2023-12-14T06:46:19;3.23;;;2.23;;
12892;SDS011;6514;48.606;9.222;2023-12-14T06:48:46;5.63;;;2.57;;
12892;SDS011;6514;48.606;9.222;2023-12-14T06:51:13;2.73;;;1.90;;
12892;SDS011;6514;48.606;9.222;2023-12-14T06:53:40;3.30;;;2.27;;
12892;SDS011;6514;48.606;9.222;2023-12-14T06:56:08;2.90;;;2.30;;
12892;SDS011;6514;48.606;9.222;2023-12-14T06:58:38;3.30;;;2.10;;
12892;SDS011;6514;48.606;9.222;2023-12-14T07:01:05;3.23;;;2.70;;
12892;SDS011;6514;48.606;9.222;2023-12-14T07:03:32;3.53;;;3.10;;
12892;SDS011;6514;48.606;9.222;2023-12-14T07:05:59;2.67;;;2.47;;
12892;SDS011;6514;48.606;9.222;2023-12-14T07:08:26;3.23;;;2.70;;
12892;SDS011;6514;48.606;9.222;2023-12-14T07:10:53;3.27;;;2.50;;
12892;SDS011;6514;48.606;9.222;2023-12-14T07:13:19;2.90;;;2.60;;
12892;SDS011;6514;48.606;9.222;2023-12-14T07:15:47;3.30;;;2.60;;
12892;SDS011;6514;48.606;9.222;2023-12-14T07:18:14;3.70;;;2.77;;
12892;SDS011;6514;48.606;9.222;2023-12-14T07:20:41;6.27;;;3.23;;
12892;SDS011;6514;48.606;9.222;2023-12-14T07:23:07;4.43;;;3.10;;
12892;SDS011;6514;48.606;9.222;2023-12-14T07:25:34;3.50;;;2.80;;
12892;SDS011;6514;48.606;9.222;2023-12-14T07:28:01;4.03;;;3.03;;
12892;SDS011;6514;48.606;9.222;2023-12-14T07:30:28;3.10;;;2.60;;
12892;SDS011;6514;48.606;9.222;2023-12-14T07:32:56;3.40;;;2.73;;
12892;SDS011;6514;48.606;9.222;2023-12-14T07:35:23;6.03;;;3.00;;
12892;SDS011;6514;48.606;9.222;2023-12-14T07:37:50;4.10;;;3.30;;
12892;SDS011;6514;48.606;9.222;2023-12-14T07:40:17;3.83;;;2.93;;
12892;SDS011;6514;48.606;9.222;2023-12-14T07:42:44;5.20;;;3.43;;
12892;SDS011;6514;48.606;9.222;2023-12-14T07:45:10;3.90;;;2.60;;
12892;SDS011;6514;48.606;9.222;2023-12-14T07:47:37;3.80;;;2.83;;
12892;SDS011;6514;48.606;9.222;2023-12-14T07:50:06;6.17;;;2.53;;
12892;SDS011;6514;48.606;9.222;2023-12-14T07:52:33;2.83;;;1.90;;
12892;SDS011;6514;48.606;9.222;2023-12-14T07:55:00;3.77;;;3.10;;
12892;SDS011;6514;48.606;9.222;2023-12-14T07:57:28;3.03;;;2.63;;
12892;SDS011;6514;48.606;9.222;2023-12-14T07:59:55;4.00;;;2.73;;
12892;SDS011;6514;48.606;9.222;2023-12-14T08:02:21;4.23;;;2.53;;
12892;SDS011;6514;48.606;9.222;2023-12-14T08:04:48;2.30;;;2.10;;
12892;SDS011;6514;48.606;9.222;2023-12-14T08:07:16;2.90;;;2.50;;
12892;SDS011;6514;48.606;9.222;2023-12-14T08:09:43;2.87;;;2.57;;
12892;SDS011;6514;48.606;9.222;2023-12-14T08:12:12;3.43;;;2.23;;
12892;SDS011;6514;48.606;9.222;2023-12-14T08:14:39;3.50;;;2.60;;
12892;SDS011;6514;48.606;9.222;2023-12-14T08:17:08;4.63;;;3.10;;
12892;SDS011;6514;48.606;9.222;2023-12-14T08:19:35;5.90;;;3.60;;
12892;SDS011;6514;48.606;9.222;2023-12-14T08:22:02;5.13;;;3.50;;
12892;SDS011;6514;48.606;9.222;2023-12-14T08:24:31;7.83;;;5.10;;
12892;SDS011;6514;48.606;9.222;2023-12-14T08:26:57;7.53;;;5.73;;
12892;SDS011;6514;48.606;9.222;2023-12-14T08:29:24;7.70;;;6.07;;
12892;SDS011;6514;48.606;9.222;2023-12-14T08:31:51;9.77;;;7.07;;
12892;SDS011;6514;48.606;9.222;2023-12-14T08:34:18;11.43;;;8.20;;
12892;SDS011;6514;48.606;9.222;2023-12-14T08:36:45;9.60;;;7.10;;
12892;SDS011;6514;48.606;9.222;2023-12-14T08:39:12;7.83;;;6.97;;
12892;SDS011;6514;48.606;9.222;2023-12-14T08:41:40;8.70;;;6.57;;
12892;SDS011;6514;48.606;9.222;2023-12-14T08:44:07;10.67;;;7.97;;
12892;SDS011;6514;48.606;9.222;2023-12-14T08:46:40;11.00;;;9.23;;
12892;SDS011;6514;48.606;9.222;2023-12-14T08:49:08;12.67;;;8.97;;
12892;SDS011;6514;48.606;9.222;2023-12-14T08:51:34;10.67;;;8.27;;
12892;SDS011;6514;48.606;9.222;2023-12-14T08:54:01;8.60;;;6.83;;
12892;SDS011;6514;48.606;9.222;2023-12-14T08:56:29;8.33;;;7.43;;
12892;SDS011;6514;48.606;9.222;2023-12-14T08:58:57;7.30;;;6.57;;
12892;SDS011;6514;48.606;9.222;2023-12-14T09:01:25;8.47;;;6.87;;
12892;SDS011;6514;48.606;9.222;2023-12-14T09:03:52;8.03;;;6.80;;
12892;SDS011;6514;48.606;9.222;2023-12-14T09:06:18;7.80;;;7.00;;
12892;SDS011;6514;48.606;9.222;2023-12-14T09:08:45;7.87;;;6.50;;
12892;SDS011;6514;48.606;9.222;2023-12-14T09:11:12;8.53;;;7.17;;
12892;SDS011;6514;48.606;9.222;2023-12-14T09:13:40;8.00;;;6.57;;
12892;SDS011;6514;48.606;9.222;2023-12-14T09:16:08;8.80;;;6.37;;
12892;SDS011;6514;48.606;9.222;2023-12-14T09:18:35;10.00;;;5.73;;
12892;SDS011;6514;48.606;9.222;2023-12-14T09:21:02;6.90;;;5.27;;
12892;SDS011;6514;48.606;9.222;2023-12-14T09:23:29;6.77;;;5.33;;
12892;SDS011;6514;48.606;9.222;2023-12-14T09:25:56;7.37;;;4.90;;
12892;SDS011;6514;48.606;9.222;2023-12-14T09:28:24;6.60;;;5.10;;
12892;SDS011;6514;48.606;9.222;2023-12-14T09:30:51;4.80;;;4.30;;
12892;SDS011;6514;48.606;9.222;2023-12-14T09:33:19;5.17;;;4.27;;
12892;SDS011;6514;48.606;9.222;2023-12-14T09:35:46;4.30;;;3.70;;
12892;SDS011;6514;48.606;9.222;2023-12-14T09:38:13;4.90;;;3.93;;
12892;SDS011;6514;48.606;9.222;2023-12-14T09:40:42;4.10;;;3.67;;
12892;SDS011;6514;48.606;9.222;2023-12-14T09:43:09;3.27;;;2.97;;
12892;SDS011;6514;48.606;9.222;2023-12-14T09:45:37;3.10;;;2.80;;
12892;SDS011;6514;48.606;9.222;2023-12-14T09:48:10;3.17;;;2.83;;
12892;SDS011;6514;48.606;9.222;2023-12-14T09:50:40;4.23;;;2.70;;
12892;SDS011;6514;48.606;9.222;2023-12-14T09:53:07;2.80;;;2.33;;
12892;SDS011;6514;48.606;9.222;2023-12-14T09:55:34;3.83;;;2.27;;
12892;SDS011;6514;48.606;9.222;2023-12-14T09:58:01;3.73;;;2.53;;
12892;SDS011;6514;48.606;9.222;2023-12-14T10:00:34;2.90;;;2.40;;
12892;SDS011;6514;48.606;9.222;2023-12-14T10:05:53;1.90;;;1.70;;
12892;SDS011;6514;48.606;9.222;2023-12-14T10:08:21;2.07;;;1.80;;
12892;SDS011;6514;48.606;9.222;2023-12-14T10:10:48;1.40;;;1.30;;
12892;SDS011;6514;48.606;9.222;2023-12-14T10:13:18;1.87;;;1.53;;
12892;SDS011;6514;48.606;9.222;2023-12-14T10:15:46;1.67;;;1.50;;
12892;SDS011;6514;48.606;9.222;2023-12-14T10:18:19;1.90;;;1.60;;
12892;SDS011;6514;48.606;9.222;2023-12-14T10:20:49;3.50;;;1.60;;
12892;SDS011;6514;48.606;9.222;2023-12-14T10:23:17;3.50;;;2.20;;
12892;SDS011;6514;48.606;9.222;2023-12-14T10:25:44;2.10;;;1.90;;
12892;SDS011;6514;48.606;9.222;2023-12-14T10:28:12;2.20;;;2.00;;
12892;SDS011;6514;48.606;9.222;2023-12-14T10:30:39;3.33;;;2.50;;
12892;SDS011;6514;48.606;9.222;2023-12-14T10:33:06;2.27;;;2.07;;
12892;SDS011;6514;48.606;9.222;2023-12-14T10:35:34;2.87;;;2.60;;
12892;SDS011;6514;48.606;9.222;2023-12-14T10:38:01;2.40;;;2.20;;
12892;SDS011;6514;48.606;9.222;2023-12-14T10:40:31;4.90;;;3.17;;
12892;SDS011;6514;48.606;9.222;2023-12-14T10:42:58;2.77;;;2.33;;
12892;SDS011;6514;48.606;9.222;2023-12-14T10:45:27;2.80;;;2.60;;
12892;SDS011;6514;48.606;9.222;2023-12-14T10:47:58;3.13;;;2.83;;
12892;SDS011;6514;48.606;9.222;2023-12-14T10:50:26;3.43;;;2.97;;
12892;SDS011;6514;48.606;9.222;2023-12-14T10:52:55;3.47;;;3.17;;
12892;SDS011;6514;48.606;9.222;2023-12-14T10:55:26;3.67;;;3.27;;
12892;SDS011;6514;48.606;9.222;2023-12-14T10:57:58;5.20;;;4.10;;
12892;SDS011;6514;48.606;9.222;2023-12-14T11:00:26;3.87;;;3.57;;
12892;SDS011;6514;48.606;9.222;2023-12-14T11:02:53;4.27;;;3.37;;
12892;SDS011;6514;48.606;9.222;2023-12-14T11:05:22;3.43;;;2.93;;
12892;SDS011;6514;48.606;9.222;2023-12-14T11:07:54;3.13;;;2.83;;
12892;SDS011;6514;48.606;9.222;2023-12-14T11:10:26;2.40;;;2.17;;
12892;SDS011;6514;48.606;9.222;2023-12-14T11:12:55;1.90;;;1.70;;
12892;SDS011;6514;48.606;9.222;2023-12-14T11:15:27;3.10;;;2.07;;
12892;SDS011;6514;48.606;9.222;2023-12-14T11:20:51;3.40;;;1.90;;
12892;SDS011;6514;48.606;9.222;2023-12-14T11:23:28;2.93;;;2.07;;
12892;SDS011;6514;48.606;9.222;2023-12-14T11:25:58;1.60;;;1.30;;
12892;SDS011;6514;48.606;9.222;2023-12-14T11:28:29;2.33;;;1.97;;
12892;SDS011;6514;48.606;9.222;2023-12-14T11:30:57;2.20;;;2.00;;
12892;SDS011;6514;48.606;9.222;2023-12-14T11:33:24;2.33;;;2.13;;
12892;SDS011;6514;48.606;9.222;2023-12-14T11:35:53;2.10;;;1.70;;
12892;SDS011;6514;48.606;9.222;2023-12-14T11:38:20;2.00;;;1.83;;
12892;SDS011;6514;48.606;9.222;2023-12-14T11:40:48;5.53;;;2.00;;
12892;SDS011;6514;48.606;9.222;2023-12-14T11:43:16;1.93;;;1.73;;
12892;SDS011;6514;48.606;9.222;2023-12-14T11:45:46;1.80;;;1.70;;
12892;SDS011;6514;48.606;9.222;2023-12-14T11:48:14;2.93;;;1.90;;
12892;SDS011;6514;48.606;9.222;2023-12-14T11:50:41;2.60;;;1.70;;
12892;SDS011;6514;48.606;9.222;2023-12-14T11:53:09;4.77;;;1.90;;
12892;SDS011;6514;48.606;9.222;2023-12-14T11:55:37;3.33;;;2.10;;
12892;SDS011;6514;48.606;9.222;2023-12-14T11:58:05;2.03;;;1.47;;
12892;SDS011;6514;48.606;9.222;2023-12-14T12:00:33;2.77;;;1.53;;
12892;SDS011;6514;48.606;9.222;2023-12-14T12:03:10;3.80;;;1.70;;
12892;SDS011;6514;48.606;9.222;2023-12-14T12:05:39;6.50;;;1.73;;
12892;SDS011;6514;48.606;9.222;2023-12-14T12:08:06;2.50;;;1.57;;
12892;SDS011;6514;48.606;9.222;2023-12-14T12:10:34;2.20;;;1.77;;
12892;SDS011;6514;48.606;9.222;2023-12-14T12:13:02;4.40;;;1.30;;
12892;SDS011;6514;48.606;9.222;2023-12-14T12:15:30;3.10;;;2.07;;
12892;SDS011;6514;48.606;9.222;2023-12-14T12:17:58;3.60;;;1.93;;
12892;SDS011;6514;48.606;9.222;2023-12-14T12:20:26;2.70;;;1.60;;
12892;SDS011;6514;48.606;9.222;2023-12-14T12:22:53;2.60;;;2.37;;
12892;SDS011;6514;48.606;9.222;2023-12-14T12:25:20;4.10;;;1.80;;
12892;SDS011;6514;48.606;9.222;2023-12-14T12:27:47;3.27;;;2.20;;
12892;SDS011;6514;48.606;9.222;2023-12-14T12:30:14;2.00;;;1.77;;
12892;SDS011;6514;48.606;9.222;2023-12-14T12:32:41;2.13;;;1.60;;
12892;SDS011;6514;48.606;9.222;2023-12-14T12:35:08;1.60;;;1.20;;
12892;SDS011;6514;48.606;9.222;2023-12-14T12:37:36;1.77;;;1.40;;
12892;SDS011;6514;48.606;9.222;2023-12-14T12:40:04;2.23;;;1.27;;
12892;SDS011;6514;48.606;9.222;2023-12-14T12:42:31;2.70;;;1.37;;
12892;SDS011;6514;48.606;9.222;2023-12-14T12:44:58;2.60;;;1.50;;
12892;SDS011;6514;48.606;9.222;2023-12-14T12:47:25;1.40;;;1.30;;
12892;SDS011;6514;48.606;9.222;2023-12-14T12:49:52;2.60;;;1.33;;
12892;SDS011;6514;48.606;9.222;2023-12-14T12:52:19;2.60;;;1.23;;
12892;SDS011;6514;48.606;9.222;2023-12-14T12:54:47;1.63;;;1.47;;
12892;SDS011;6514;48.606;9.222;2023-12-14T12:57:14;2.00;;;1.33;;
12892;SDS011;6514;48.606;9.222;2023-12-14T12:59:41;1.60;;;1.20;;
12892;SDS011;6514;48.606;9.222;2023-12-14T13:02:07;2.70;;;1.30;;
12892;SDS011;6514;48.606;9.222;2023-12-14T13:04:34;1.20;;;1.10;;
12892;SDS011;6514;48.606;9.222;2023-12-14T13:07:02;2.87;;;1.33;;
12892;SDS011;6514;48.606;9.222;2023-12-14T13:09:29;1.30;;;1.20;;
12892;SDS011;6514;48.606;9.222;2023-12-14T13:11:57;1.40;;;1.30;;
12892;SDS011;6514;48.606;9.222;2023-12-14T13:14:24;2.30;;;1.30;;
12892;SDS011;6514;48.606;9.222;2023-12-14T13:16:51;1.83;;;1.27;;
12892;SDS011;6514;48.606;9.222;2023-12-14T13:19:18;1.30;;;1.20;;
12892;SDS011;6514;48.606;9.222;2023-12-14T13:21:45;2.63;;;1.40;;
12892;SDS011;6514;48.606;9.222;2023-12-14T13:24:11;1.43;;;1.30;;
12892;SDS011;6514;48.606;9.222;2023-12-14T13:26:38;2.37;;;1.60;;
12892;SDS011;6514;48.606;9.222;2023-12-14T13:29:06;2.37;;;1.80;;
12892;SDS011;6514;48.606;9.222;2023-12-14T13:31:33;2.47;;;1.30;;
12892;SDS011;6514;48.606;9.222;2023-12-14T13:34:00;2.03;;;1.50;;
12892;SDS011;6514;48.606;9.222;2023-12-14T13:36:28;2.10;;;1.70;;
12892;SDS011;6514;48.606;9.222;2023-12-14T13:38:55;2.27;;;1.20;;
12892;SDS011;6514;48.606;9.222;2023-12-14T13:41:22;1.83;;;1.40;;
12892;SDS011;6514;48.606;9.222;2023-12-14T13:43:49;2.50;;;1.70;;
12892;SDS011;6514;48.606;9.222;2023-12-14T13:46:18;2.40;;;1.47;;
12892;SDS011;6514;48.606;9.222;2023-12-14T13:48:45;2.60;;;1.47;;
12892;SDS011;6514;48.606;9.222;2023-12-14T13:51:11;2.13;;;1.57;;
12892;SDS011;6514;48.606;9.222;2023-12-14T13:53:38;3.13;;;1.50;;
12892;SDS011;6514;48.606;9.222;2023-12-14T13:56:05;1.93;;;1.30;;
12892;SDS011;6514;48.606;9.222;2023-12-14T13:58:32;1.77;;;1.33;;
12892;SDS011;6514;48.606;9.222;2023-12-14T14:01:05;1.77;;;1.67;;
12892;SDS011;6514;48.606;9.222;2023-12-14T14:03:34;2.17;;;1.27;;
12892;SDS011;6514;48.606;9.222;2023-12-14T14:06:03;1.77;;;1.30;;
12892;SDS011;6514;48.606;9.222;2023-12-14T14:08:30;1.60;;;1.30;;
12892;SDS011;6514;48.606;9.222;2023-12-14T14:10:57;1.50;;;1.40;;
12892;SDS011;6514;48.606;9.222;2023-12-14T14:13:24;1.23;;;1.00;;
12892;SDS011;6514;48.606;9.222;2023-12-14T14:15:51;1.60;;;1.50;;
12892;SDS011;6514;48.606;9.222;2023-12-14T14:18:18;0.80;;;0.80;;
12892;SDS011;6514;48.606;9.222;2023-12-14T14:20:47;2.70;;;1.10;;
12892;SDS011;6514;48.606;9.222;2023-12-14T14:23:14;1.13;;;1.03;;
12892;SDS011;6514;48.606;9.222;2023-12-14T14:25:40;1.37;;;1.27;;
12892;SDS011;6514;48.606;9.222;2023-12-14T14:28:07;2.07;;;1.40;;
12892;SDS011;6514;48.606;9.222;2023-12-14T14:30:34;1.20;;;1.10;;
12892;SDS011;6514;48.606;9.222;2023-12-14T14:33:01;1.97;;;1.40;;
12892;SDS011;6514;48.606;9.222;2023-12-14T14:35:28;2.30;;;1.20;;
12892;SDS011;6514;48.606;9.222;2023-12-14T14:37:56;1.57;;;1.10;;
12892;SDS011;6514;48.606;9.222;2023-12-14T14:40:23;1.50;;;1.40;;
12892;SDS011;6514;48.606;9.222;2023-12-14T14:42:50;2.23;;;1.67;;
12892;SDS011;6514;48.606;9.222;2023-12-14T14:45:16;1.80;;;1.70;;
12892;SDS011;6514;48.606;9.222;2023-12-14T14:47:43;2.63;;;1.50;;
12892;SDS011;6514;48.606;9.222;2023-12-14T14:50:10;2.83;;;1.80;;
12892;SDS011;6514;48.606;9.222;2023-12-14T14:52:37;2.77;;;1.83;;
12892;SDS011;6514;48.606;9.222;2023-12-14T14:55:05;2.70;;;2.13;;
12892;SDS011;6514;48.606;9.222;2023-12-14T14:57:33;4.10;;;2.27;;
12892;SDS011;6514;48.606;9.222;2023-12-14T14:59:59;3.87;;;2.17;;
12892;SDS011;6514;48.606;9.222;2023-12-14T15:02:26;6.13;;;2.30;;
12892;SDS011;6514;48.606;9.222;2023-12-14T15:04:54;2.83;;;2.10;;
12892;SDS011;6514;48.606;9.222;2023-12-14T15:07:21;3.00;;;2.40;;